sensor_id;sensor_type;location;lat;lon;timestamp;pressure;altitude;pressure_sealevel;temperature;humidity
54144;BME280;40050;47.324;18.792;2023-07-20T00:00:02;997.00;;;25.10;57.29
54144;BME280;40050;47.324;18.792;2023-07-20T00:02:03;996.95;;;25.06;57.43
54144;BME280;40050;47.324;18.792;2023-07-20T00:04:04;997.05;;;25.05;57.50
54144;BME280;40050;47.324;18.792;2023-07-20T00:06:05;997.01;;;25.03;57.49
54144;BME280;40050;47.324;18.792;2023-07-20T00:08:06;996.98;;;25.00;57.61
54144;BME280;40050;47.324;18.792;2023-07-20T00:10:07;996.92;;;24.98;57.64
54144;BME280;40050;47.324;18.792;2023-07-20T00:12:08;996.91;;;24.98;57.69
54144;BME280;40050;47.324;18.792;2023-07-20T00:14:09;996.80;;;24.90;57.63
54144;BME280;40050;47.324;18.792;2023-07-20T00:16:10;996.86;;;24.94;57.62
54144;BME280;40050;47.324;18.792;2023-07-20T00:18:11;996.84;;;24.92;57.71
54144;BME280;40050;47.324;18.792;2023-07-20T00:20:11;996.78;;;24.88;57.65
54144;BME280;40050;47.324;18.792;2023-07-20T00:22:12;996.78;;;24.89;57.90
54144;BME280;40050;47.324;18.792;2023-07-20T00:24:13;996.83;;;24.90;58.00
54144;BME280;40050;47.324;18.792;2023-07-20T00:26:14;996.83;;;24.89;57.97
54144;BME280;40050;47.324;18.792;2023-07-20T00:28:15;996.90;;;24.88;57.89
54144;BME280;40050;47.324;18.792;2023-07-20T00:30:16;996.97;;;24.88;57.69
54144;BME280;40050;47.324;18.792;2023-07-20T00:32:17;996.90;;;24.76;57.87
54144;BME280;40050;47.324;18.792;2023-07-20T00:34:18;996.96;;;24.71;57.98
54144;BME280;40050;47.324;18.792;2023-07-20T00:36:19;997.01;;;24.64;58.19
54144;BME280;40050;47.324;18.792;2023-07-20T00:38:20;996.88;;;24.54;58.19
54144;BME280;40050;47.324;18.792;2023-07-20T00:40:21;996.70;;;24.43;58.45
54144;BME280;40050;47.324;18.792;2023-07-20T00:42:22;996.88;;;24.56;58.47
54144;BME280;40050;47.324;18.792;2023-07-20T00:44:23;996.90;;;24.55;58.38
54144;BME280;40050;47.324;18.792;2023-07-20T00:46:24;996.91;;;24.53;58.63
54144;BME280;40050;47.324;18.792;2023-07-20T00:48:25;996.88;;;24.49;58.78
54144;BME280;40050;47.324;18.792;2023-07-20T00:50:26;996.86;;;24.47;58.83
54144;BME280;40050;47.324;18.792;2023-07-20T00:52:28;996.79;;;24.45;59.00
54144;BME280;40050;47.324;18.792;2023-07-20T00:54:29;996.76;;;24.45;59.22
54144;BME280;40050;47.324;18.792;2023-07-20T00:56:30;996.69;;;24.42;59.15
54144;BME280;40050;47.324;18.792;2023-07-20T00:58:31;996.65;;;24.43;59.40
54144;BME280;40050;47.324;18.792;2023-07-20T01:00:32;996.56;;;24.41;59.43
54144;BME280;40050;47.324;18.792;2023-07-20T01:02:33;996.52;;;24.35;59.58
54144;BME280;40050;47.324;18.792;2023-07-20T01:04:34;996.51;;;24.36;59.79
54144;BME280;40050;47.324;18.792;2023-07-20T01:06:45;996.36;;;24.30;60.03
54144;BME280;40050;47.324;18.792;2023-07-20T01:09:07;996.49;;;24.34;60.05
54144;BME280;40050;47.324;18.792;2023-07-20T01:11:16;996.54;;;24.29;60.39
54144;BME280;40050;47.324;18.792;2023-07-20T01:13:20;996.45;;;24.23;60.70
54144;BME280;40050;47.324;18.792;2023-07-20T01:15:22;996.42;;;24.27;60.60
54144;BME280;40050;47.324;18.792;2023-07-20T01:17:23;996.39;;;24.27;60.60
54144;BME280;40050;47.324;18.792;2023-07-20T01:19:24;996.32;;;24.27;60.77
54144;BME280;40050;47.324;18.792;2023-07-20T01:21:33;996.35;;;24.29;60.82
54144;BME280;40050;47.324;18.792;2023-07-20T01:23:46;996.34;;;24.28;60.76
54144;BME280;40050;47.324;18.792;2023-07-20T01:30:47;996.44;;;24.29;60.09
54144;BME280;40050;47.324;18.792;2023-07-20T01:32:51;996.44;;;24.26;60.18
54144;BME280;40050;47.324;18.792;2023-07-20T01:34:55;996.48;;;24.21;60.27
54144;BME280;40050;47.324;18.792;2023-07-20T01:36:57;996.57;;;24.22;60.36
54144;BME280;40050;47.324;18.792;2023-07-20T01:38:58;996.59;;;24.21;60.59
54144;BME280;40050;47.324;18.792;2023-07-20T01:40:59;996.65;;;24.21;60.80
54144;BME280;40050;47.324;18.792;2023-07-20T01:43:01;996.67;;;24.20;60.89
54144;BME280;40050;47.324;18.792;2023-07-20T01:45:02;996.65;;;24.20;60.95
54144;BME280;40050;47.324;18.792;2023-07-20T01:47:04;996.64;;;24.21;61.03
54144;BME280;40050;47.324;18.792;2023-07-20T01:49:05;996.61;;;24.21;60.95
54144;BME280;40050;47.324;18.792;2023-07-20T01:51:05;996.66;;;24.23;61.00
54144;BME280;40050;47.324;18.792;2023-07-20T01:53:06;996.71;;;24.25;61.06
54144;BME280;40050;47.324;18.792;2023-07-20T01:55:08;996.70;;;24.26;61.08
54144;BME280;40050;47.324;18.792;2023-07-20T01:57:08;996.76;;;24.26;61.01
54144;BME280;40050;47.324;18.792;2023-07-20T01:59:09;996.76;;;24.24;61.01
54144;BME280;40050;47.324;18.792;2023-07-20T02:01:10;996.81;;;24.30;61.02
54144;BME280;40050;47.324;18.792;2023-07-20T02:03:11;996.54;;;24.15;60.99
54144;BME280;40050;47.324;18.792;2023-07-20T02:05:12;996.75;;;24.30;60.85
54144;BME280;40050;47.324;18.792;2023-07-20T02:07:13;996.81;;;24.31;60.82
54144;BME280;40050;47.324;18.792;2023-07-20T02:09:14;996.79;;;24.31;60.82
54144;BME280;40050;47.324;18.792;2023-07-20T02:11:15;996.76;;;24.31;60.89
54144;BME280;40050;47.324;18.792;2023-07-20T02:13:16;996.66;;;24.31;60.85
54144;BME280;40050;47.324;18.792;2023-07-20T02:15:17;996.71;;;24.32;60.92
54144;BME280;40050;47.324;18.792;2023-07-20T02:17:18;996.78;;;24.34;60.90
54144;BME280;40050;47.324;18.792;2023-07-20T02:19:19;996.73;;;24.35;60.91
54144;BME280;40050;47.324;18.792;2023-07-20T02:21:20;996.72;;;24.34;60.89
54144;BME280;40050;47.324;18.792;2023-07-20T02:23:21;996.76;;;24.34;61.01
54144;BME280;40050;47.324;18.792;2023-07-20T02:25:21;996.85;;;24.36;61.05
54144;BME280;40050;47.324;18.792;2023-07-20T02:27:22;996.83;;;24.34;61.15
54144;BME280;40050;47.324;18.792;2023-07-20T02:29:23;996.87;;;24.31;61.17
54144;BME280;40050;47.324;18.792;2023-07-20T02:31:24;996.89;;;24.26;61.08
54144;BME280;40050;47.324;18.792;2023-07-20T02:33:25;996.84;;;24.23;60.89
54144;BME280;40050;47.324;18.792;2023-07-20T02:35:26;996.83;;;24.21;60.83
54144;BME280;40050;47.324;18.792;2023-07-20T02:37:27;996.81;;;24.18;60.78
54144;BME280;40050;47.324;18.792;2023-07-20T02:39:28;996.87;;;24.17;60.80
54144;BME280;40050;47.324;18.792;2023-07-20T02:41:30;996.85;;;24.14;60.76
54144;BME280;40050;47.324;18.792;2023-07-20T02:43:31;996.86;;;24.11;60.80
54144;BME280;40050;47.324;18.792;2023-07-20T02:45:31;996.83;;;24.07;60.88
54144;BME280;40050;47.324;18.792;2023-07-20T02:47:32;996.85;;;24.04;61.13
54144;BME280;40050;47.324;18.792;2023-07-20T02:49:33;996.96;;;24.07;61.15
54144;BME280;40050;47.324;18.792;2023-07-20T02:51:34;996.78;;;23.93;61.36
54144;BME280;40050;47.324;18.792;2023-07-20T02:53:35;997.01;;;24.04;61.39
54144;BME280;40050;47.324;18.792;2023-07-20T02:55:36;997.04;;;24.03;61.44
54144;BME280;40050;47.324;18.792;2023-07-20T02:57:37;997.08;;;24.03;61.60
54144;BME280;40050;47.324;18.792;2023-07-20T02:59:38;997.11;;;24.01;61.60
54144;BME280;40050;47.324;18.792;2023-07-20T03:01:39;997.12;;;23.97;61.62
54144;BME280;40050;47.324;18.792;2023-07-20T03:03:40;997.20;;;23.96;61.50
54144;BME280;40050;47.324;18.792;2023-07-20T03:05:41;997.20;;;23.91;61.57
54144;BME280;40050;47.324;18.792;2023-07-20T03:07:42;997.20;;;23.85;61.76
54144;BME280;40050;47.324;18.792;2023-07-20T03:09:43;997.10;;;23.75;61.95
54144;BME280;40050;47.324;18.792;2023-07-20T03:11:44;997.12;;;23.74;62.14
54144;BME280;40050;47.324;18.792;2023-07-20T03:13:45;997.20;;;23.73;62.17
54144;BME280;40050;47.324;18.792;2023-07-20T03:15:45;997.18;;;23.72;62.29
54144;BME280;40050;47.324;18.792;2023-07-20T03:17:46;997.26;;;23.68;62.37
54144;BME280;40050;47.324;18.792;2023-07-20T03:19:47;997.29;;;23.67;62.31
54144;BME280;40050;47.324;18.792;2023-07-20T03:21:48;997.28;;;23.68;62.37
54144;BME280;40050;47.324;18.792;2023-07-20T03:23:49;997.28;;;23.65;62.46
54144;BME280;40050;47.324;18.792;2023-07-20T03:25:50;997.32;;;23.66;62.40
54144;BME280;40050;47.324;18.792;2023-07-20T03:27:51;997.33;;;23.67;62.30
54144;BME280;40050;47.324;18.792;2023-07-20T03:29:52;997.35;;;23.69;62.40
54144;BME280;40050;47.324;18.792;2023-07-20T03:31:53;997.26;;;23.68;62.47
54144;BME280;40050;47.324;18.792;2023-07-20T03:33:54;997.27;;;23.71;62.37
54144;BME280;40050;47.324;18.792;2023-07-20T03:35:55;997.17;;;23.66;62.21
54144;BME280;40050;47.324;18.792;2023-07-20T03:37:56;997.30;;;23.73;62.02
54144;BME280;40050;47.324;18.792;2023-07-20T03:39:56;997.35;;;23.75;61.75
54144;BME280;40050;47.324;18.792;2023-07-20T03:41:58;997.33;;;23.77;61.44
54144;BME280;40050;47.324;18.792;2023-07-20T03:43:58;997.33;;;23.76;61.43
54144;BME280;40050;47.324;18.792;2023-07-20T03:45:59;997.33;;;23.77;61.30
54144;BME280;40050;47.324;18.792;2023-07-20T03:48:00;997.29;;;23.81;61.18
54144;BME280;40050;47.324;18.792;2023-07-20T03:50:01;997.30;;;23.83;61.11
54144;BME280;40050;47.324;18.792;2023-07-20T03:52:02;997.32;;;23.86;61.13
54144;BME280;40050;47.324;18.792;2023-07-20T03:54:03;997.29;;;23.88;61.11
54144;BME280;40050;47.324;18.792;2023-07-20T03:56:04;997.36;;;23.93;60.88
54144;BME280;40050;47.324;18.792;2023-07-20T03:58:05;997.33;;;23.95;60.84
54144;BME280;40050;47.324;18.792;2023-07-20T04:00:06;997.14;;;23.83;60.75
54144;BME280;40050;47.324;18.792;2023-07-20T04:02:08;997.33;;;23.99;60.35
54144;BME280;40050;47.324;18.792;2023-07-20T04:04:08;997.38;;;24.00;60.15
54144;BME280;40050;47.324;18.792;2023-07-20T04:06:09;997.39;;;24.01;59.94
54144;BME280;40050;47.324;18.792;2023-07-20T04:08:10;997.35;;;24.01;59.66
54144;BME280;40050;47.324;18.792;2023-07-20T04:10:11;997.32;;;24.01;59.06
54144;BME280;40050;47.324;18.792;2023-07-20T04:12:12;997.34;;;24.05;58.84
54144;BME280;40050;47.324;18.792;2023-07-20T04:14:13;997.37;;;24.10;58.61
54144;BME280;40050;47.324;18.792;2023-07-20T04:16:14;997.40;;;24.13;58.15
54144;BME280;40050;47.324;18.792;2023-07-20T04:18:15;997.32;;;24.13;57.64
54144;BME280;40050;47.324;18.792;2023-07-20T04:20:16;997.30;;;24.16;57.61
54144;BME280;40050;47.324;18.792;2023-07-20T04:22:17;997.27;;;24.18;57.48
54144;BME280;40050;47.324;18.792;2023-07-20T04:24:18;997.29;;;24.24;57.43
54144;BME280;40050;47.324;18.792;2023-07-20T04:26:19;997.24;;;24.27;57.34
54144;BME280;40050;47.324;18.792;2023-07-20T04:28:20;997.33;;;24.33;57.41
54144;BME280;40050;47.324;18.792;2023-07-20T04:30:21;997.32;;;24.36;57.44
54144;BME280;40050;47.324;18.792;2023-07-20T04:32:21;997.43;;;24.41;57.72
54144;BME280;40050;47.324;18.792;2023-07-20T04:34:22;997.41;;;24.46;57.66
54144;BME280;40050;47.324;18.792;2023-07-20T04:36:23;997.46;;;24.48;57.43
54144;BME280;40050;47.324;18.792;2023-07-20T04:38:24;997.50;;;24.51;57.59
54144;BME280;40050;47.324;18.792;2023-07-20T04:40:25;997.49;;;24.54;57.64
54144;BME280;40050;47.324;18.792;2023-07-20T04:42:26;997.41;;;24.55;57.52
54144;BME280;40050;47.324;18.792;2023-07-20T04:44:27;997.58;;;24.59;57.56
54144;BME280;40050;47.324;18.792;2023-07-20T04:46:28;997.61;;;24.60;57.68
54144;BME280;40050;47.324;18.792;2023-07-20T04:48:29;997.50;;;24.63;57.35
54144;BME280;40050;47.324;18.792;2023-07-20T04:50:30;997.55;;;24.64;57.30
54144;BME280;40050;47.324;18.792;2023-07-20T04:52:31;997.38;;;24.53;57.01
54144;BME280;40050;47.324;18.792;2023-07-20T04:54:31;997.57;;;24.68;56.73
54144;BME280;40050;47.324;18.792;2023-07-20T04:56:32;997.57;;;24.71;56.82
54144;BME280;40050;47.324;18.792;2023-07-20T04:58:33;997.57;;;24.76;56.75
54144;BME280;40050;47.324;18.792;2023-07-20T05:00:34;997.55;;;24.78;56.88
54144;BME280;40050;47.324;18.792;2023-07-20T05:02:35;997.57;;;24.83;56.96
54144;BME280;40050;47.324;18.792;2023-07-20T05:04:36;997.56;;;24.90;56.82
54144;BME280;40050;47.324;18.792;2023-07-20T05:06:37;997.53;;;24.98;56.99
54144;BME280;40050;47.324;18.792;2023-07-20T05:08:38;997.53;;;25.07;56.56
54144;BME280;40050;47.324;18.792;2023-07-20T05:10:39;997.55;;;25.16;56.46
54144;BME280;40050;47.324;18.792;2023-07-20T05:12:40;997.49;;;25.24;56.35
54144;BME280;40050;47.324;18.792;2023-07-20T05:14:41;997.52;;;25.34;56.33
54144;BME280;40050;47.324;18.792;2023-07-20T05:16:42;997.21;;;25.28;56.46
54144;BME280;40050;47.324;18.792;2023-07-20T05:18:43;997.46;;;25.53;56.32
54144;BME280;40050;47.324;18.792;2023-07-20T05:20:45;997.42;;;25.63;56.19
54144;BME280;40050;47.324;18.792;2023-07-20T05:22:46;997.47;;;25.73;56.47
54144;BME280;40050;47.324;18.792;2023-07-20T05:24:47;997.47;;;25.78;56.52
54144;BME280;40050;47.324;18.792;2023-07-20T05:26:48;997.55;;;25.89;56.09
54144;BME280;40050;47.324;18.792;2023-07-20T05:28:48;997.59;;;25.95;54.88
54144;BME280;40050;47.324;18.792;2023-07-20T05:30:50;997.61;;;25.98;54.86
54144;BME280;40050;47.324;18.792;2023-07-20T05:32:51;997.63;;;26.03;54.54
54144;BME280;40050;47.324;18.792;2023-07-20T05:34:52;997.68;;;26.05;54.31
54144;BME280;40050;47.324;18.792;2023-07-20T05:36:53;997.72;;;26.12;54.26
54144;BME280;40050;47.324;18.792;2023-07-20T05:38:54;997.65;;;26.23;53.45
54144;BME280;40050;47.324;18.792;2023-07-20T05:40:58;997.67;;;26.35;53.42
54144;BME280;40050;47.324;18.792;2023-07-20T05:43:00;997.66;;;26.47;53.26
54144;BME280;40050;47.324;18.792;2023-07-20T05:45:00;997.72;;;26.62;53.42
54144;BME280;40050;47.324;18.792;2023-07-20T05:47:01;997.74;;;26.77;53.10
54144;BME280;40050;47.324;18.792;2023-07-20T05:49:02;997.67;;;26.89;52.66
54144;BME280;40050;47.324;18.792;2023-07-20T05:51:03;997.63;;;27.02;52.17
54144;BME280;40050;47.324;18.792;2023-07-20T05:53:04;997.67;;;27.18;51.56
54144;BME280;40050;47.324;18.792;2023-07-20T05:55:05;997.66;;;27.30;50.93
54144;BME280;40050;47.324;18.792;2023-07-20T05:57:07;997.61;;;27.37;49.45
54144;BME280;40050;47.324;18.792;2023-07-20T05:59:08;997.66;;;27.47;47.75
54144;BME280;40050;47.324;18.792;2023-07-20T06:01:09;997.61;;;27.52;47.31
54144;BME280;40050;47.324;18.792;2023-07-20T06:03:10;997.65;;;27.64;46.41
54144;BME280;40050;47.324;18.792;2023-07-20T06:05:11;997.73;;;27.72;45.52
54144;BME280;40050;47.324;18.792;2023-07-20T06:07:11;997.76;;;27.81;45.30
54144;BME280;40050;47.324;18.792;2023-07-20T06:09:12;997.77;;;27.96;45.27
54144;BME280;40050;47.324;18.792;2023-07-20T06:11:13;997.83;;;28.11;45.11
54144;BME280;40050;47.324;18.792;2023-07-20T06:13:14;997.87;;;28.25;44.61
54144;BME280;40050;47.324;18.792;2023-07-20T06:15:25;997.86;;;28.32;44.27
54144;BME280;40050;47.324;18.792;2023-07-20T06:17:26;997.91;;;28.35;43.22
54144;BME280;40050;47.324;18.792;2023-07-20T06:19:27;997.98;;;28.32;42.78
54144;BME280;40050;47.324;18.792;2023-07-20T06:21:28;998.00;;;28.29;42.89
54144;BME280;40050;47.324;18.792;2023-07-20T06:23:29;998.02;;;28.30;42.78
54144;BME280;40050;47.324;18.792;2023-07-20T06:25:30;998.08;;;28.25;43.25
54144;BME280;40050;47.324;18.792;2023-07-20T06:27:31;998.07;;;28.23;43.30
54144;BME280;40050;47.324;18.792;2023-07-20T06:29:32;998.09;;;28.22;42.98
54144;BME280;40050;47.324;18.792;2023-07-20T06:31:33;998.12;;;28.20;42.99
54144;BME280;40050;47.324;18.792;2023-07-20T06:33:34;998.13;;;28.16;42.74
54144;BME280;40050;47.324;18.792;2023-07-20T06:35:35;998.17;;;28.11;42.79
54144;BME280;40050;47.324;18.792;2023-07-20T06:37:36;998.21;;;28.11;43.14
54144;BME280;40050;47.324;18.792;2023-07-20T06:39:37;998.16;;;28.14;43.05
54144;BME280;40050;47.324;18.792;2023-07-20T06:41:38;998.14;;;28.18;43.03
54144;BME280;40050;47.324;18.792;2023-07-20T06:43:39;998.13;;;28.24;43.49
54144;BME280;40050;47.324;18.792;2023-07-20T06:45:40;998.12;;;28.43;44.52
54144;BME280;40050;47.324;18.792;2023-07-20T06:47:41;998.14;;;28.63;43.80
54144;BME280;40050;47.324;18.792;2023-07-20T06:49:42;998.06;;;28.78;43.17
54144;BME280;40050;47.324;18.792;2023-07-20T06:51:43;998.04;;;28.93;42.71
54144;BME280;40050;47.324;18.792;2023-07-20T06:53:43;998.06;;;29.07;42.76
54144;BME280;40050;47.324;18.792;2023-07-20T06:55:44;998.04;;;29.22;41.95
54144;BME280;40050;47.324;18.792;2023-07-20T06:57:45;998.08;;;29.28;41.25
54144;BME280;40050;47.324;18.792;2023-07-20T06:59:46;997.84;;;29.24;41.39
54144;BME280;40050;47.324;18.792;2023-07-20T07:01:47;997.98;;;29.44;41.71
54144;BME280;40050;47.324;18.792;2023-07-20T07:03:48;998.02;;;29.62;40.96
54144;BME280;40050;47.324;18.792;2023-07-20T07:05:49;998.08;;;29.78;40.79
54144;BME280;40050;47.324;18.792;2023-07-20T07:07:50;998.23;;;29.96;40.47
54144;BME280;40050;47.324;18.792;2023-07-20T07:09:51;998.13;;;30.01;39.92
54144;BME280;40050;47.324;18.792;2023-07-20T07:11:52;998.23;;;30.08;39.30
54144;BME280;40050;47.324;18.792;2023-07-20T07:13:53;998.21;;;30.20;40.10
54144;BME280;40050;47.324;18.792;2023-07-20T07:15:53;998.21;;;30.38;39.91
54144;BME280;40050;47.324;18.792;2023-07-20T07:17:54;998.18;;;30.52;39.81
54144;BME280;40050;47.324;18.792;2023-07-20T07:19:55;998.17;;;30.68;39.08
54144;BME280;40050;47.324;18.792;2023-07-20T07:21:56;998.18;;;30.82;38.79
54144;BME280;40050;47.324;18.792;2023-07-20T07:23:57;998.24;;;30.98;38.08
54144;BME280;40050;47.324;18.792;2023-07-20T07:25:58;998.18;;;31.14;38.71
54144;BME280;40050;47.324;18.792;2023-07-20T07:27:59;998.19;;;31.29;38.20
54144;BME280;40050;47.324;18.792;2023-07-20T07:30:00;998.28;;;31.43;37.75
54144;BME280;40050;47.324;18.792;2023-07-20T07:32:01;998.23;;;31.52;37.39
54144;BME280;40050;47.324;18.792;2023-07-20T07:34:02;998.23;;;31.64;37.05
54144;BME280;40050;47.324;18.792;2023-07-20T07:36:03;998.38;;;31.80;36.79
54144;BME280;40050;47.324;18.792;2023-07-20T07:38:04;998.25;;;31.83;36.00
54144;BME280;40050;47.324;18.792;2023-07-20T07:40:06;998.33;;;31.76;35.42
54144;BME280;40050;47.324;18.792;2023-07-20T07:42:07;998.31;;;31.68;35.83
54144;BME280;40050;47.324;18.792;2023-07-20T07:44:08;998.37;;;31.62;35.79
54144;BME280;40050;47.324;18.792;2023-07-20T07:46:09;998.33;;;31.46;35.33
54144;BME280;40050;47.324;18.792;2023-07-20T07:48:09;998.33;;;31.39;35.58
54144;BME280;40050;47.324;18.792;2023-07-20T07:50:10;998.30;;;31.28;35.32
54144;BME280;40050;47.324;18.792;2023-07-20T07:52:11;998.40;;;31.22;35.11
54144;BME280;40050;47.324;18.792;2023-07-20T07:54:12;998.44;;;31.11;35.63
54144;BME280;40050;47.324;18.792;2023-07-20T07:56:13;998.44;;;30.99;35.32
54144;BME280;40050;47.324;18.792;2023-07-20T07:58:14;998.46;;;30.91;35.32
54144;BME280;40050;47.324;18.792;2023-07-20T08:00:15;998.32;;;30.72;35.21
54144;BME280;40050;47.324;18.792;2023-07-20T08:02:16;998.24;;;30.55;35.33
54144;BME280;40050;47.324;18.792;2023-07-20T08:04:17;998.49;;;30.59;35.74
54144;BME280;40050;47.324;18.792;2023-07-20T08:06:18;998.44;;;30.48;35.75
54144;BME280;40050;47.324;18.792;2023-07-20T08:08:19;998.43;;;30.54;35.71
54144;BME280;40050;47.324;18.792;2023-07-20T08:10:21;998.51;;;30.72;35.20
54144;BME280;40050;47.324;18.792;2023-07-20T08:12:22;998.54;;;30.87;35.56
54144;BME280;40050;47.324;18.792;2023-07-20T08:14:23;998.54;;;31.10;35.00
54144;BME280;40050;47.324;18.792;2023-07-20T08:16:24;998.61;;;31.31;34.89
54144;BME280;40050;47.324;18.792;2023-07-20T08:18:25;998.51;;;31.49;34.55
54144;BME280;40050;47.324;18.792;2023-07-20T08:20:26;998.55;;;31.63;34.16
54144;BME280;40050;47.324;18.792;2023-07-20T08:22:27;998.56;;;31.81;34.04
54144;BME280;40050;47.324;18.792;2023-07-20T08:24:28;998.24;;;31.80;33.64
54144;BME280;40050;47.324;18.792;2023-07-20T08:26:29;998.52;;;32.09;33.90
54144;BME280;40050;47.324;18.792;2023-07-20T08:28:29;998.52;;;32.29;33.67
54144;BME280;40050;47.324;18.792;2023-07-20T08:30:43;998.55;;;32.52;33.66
54144;BME280;40050;47.324;18.792;2023-07-20T08:32:44;998.55;;;32.71;33.28
54144;BME280;40050;47.324;18.792;2023-07-20T08:34:45;998.50;;;32.88;33.09
54144;BME280;40050;47.324;18.792;2023-07-20T08:36:46;998.50;;;33.10;33.02
54144;BME280;40050;47.324;18.792;2023-07-20T08:38:47;998.56;;;33.27;32.34
54144;BME280;40050;47.324;18.792;2023-07-20T08:40:47;998.55;;;33.37;32.11
54144;BME280;40050;47.324;18.792;2023-07-20T08:42:48;998.61;;;33.52;32.50
54144;BME280;40050;47.324;18.792;2023-07-20T08:44:49;998.59;;;33.69;31.78
54144;BME280;40050;47.324;18.792;2023-07-20T08:46:53;998.54;;;33.76;31.06
54144;BME280;40050;47.324;18.792;2023-07-20T08:48:54;998.60;;;33.92;31.10
54144;BME280;40050;47.324;18.792;2023-07-20T08:50:57;998.62;;;33.97;30.63
54144;BME280;40050;47.324;18.792;2023-07-20T08:52:59;998.60;;;34.00;30.23
54144;BME280;40050;47.324;18.792;2023-07-20T08:55:00;998.69;;;34.04;29.83
54144;BME280;40050;47.324;18.792;2023-07-20T08:57:02;998.68;;;34.08;29.77
54144;BME280;40050;47.324;18.792;2023-07-20T08:59:03;998.70;;;34.07;29.60
54144;BME280;40050;47.324;18.792;2023-07-20T09:01:04;998.68;;;34.02;29.30
54144;BME280;40050;47.324;18.792;2023-07-20T09:03:05;998.69;;;33.98;29.13
54144;BME280;40050;47.324;18.792;2023-07-20T09:05:07;998.63;;;33.88;28.88
54144;BME280;40050;47.324;18.792;2023-07-20T09:07:09;998.64;;;33.88;29.23
54144;BME280;40050;47.324;18.792;2023-07-20T09:09:10;998.70;;;33.93;29.94
54144;BME280;40050;47.324;18.792;2023-07-20T09:11:11;998.70;;;34.01;29.78
54144;BME280;40050;47.324;18.792;2023-07-20T09:13:15;998.71;;;34.08;30.09
54144;BME280;40050;47.324;18.792;2023-07-20T09:15:16;998.69;;;34.05;29.48
54144;BME280;40050;47.324;18.792;2023-07-20T09:17:17;998.56;;;33.94;29.45
54144;BME280;40050;47.324;18.792;2023-07-20T09:19:18;998.70;;;34.04;29.62
54144;BME280;40050;47.324;18.792;2023-07-20T09:21:19;998.71;;;34.05;29.69
54144;BME280;40050;47.324;18.792;2023-07-20T09:23:20;998.66;;;34.11;30.03
54144;BME280;40050;47.324;18.792;2023-07-20T09:25:29;998.69;;;34.21;30.08
54144;BME280;40050;47.324;18.792;2023-07-20T09:27:37;998.67;;;34.33;29.68
54144;BME280;40050;47.324;18.792;2023-07-20T09:29:48;998.69;;;34.44;29.61
54144;BME280;40050;47.324;18.792;2023-07-20T09:32:02;998.59;;;34.43;29.11
54144;BME280;40050;47.324;18.792;2023-07-20T09:34:03;998.62;;;34.35;28.89
54144;BME280;40050;47.324;18.792;2023-07-20T09:36:05;998.65;;;34.36;29.50
54144;BME280;40050;47.324;18.792;2023-07-20T09:38:06;998.56;;;34.45;29.49
54144;BME280;40050;47.324;18.792;2023-07-20T09:40:07;998.63;;;34.61;29.63
54144;BME280;40050;47.324;18.792;2023-07-20T09:42:08;998.44;;;34.66;29.35
54144;BME280;40050;47.324;18.792;2023-07-20T09:44:10;998.68;;;34.86;28.50
54144;BME280;40050;47.324;18.792;2023-07-20T09:46:11;998.72;;;34.92;28.37
54144;BME280;40050;47.324;18.792;2023-07-20T09:48:11;998.73;;;34.91;28.56
54144;BME280;40050;47.324;18.792;2023-07-20T09:50:12;998.77;;;34.87;28.85
54144;BME280;40050;47.324;18.792;2023-07-20T09:52:13;998.84;;;34.82;27.92
54144;BME280;40050;47.324;18.792;2023-07-20T09:54:15;998.83;;;34.62;27.76
54144;BME280;40050;47.324;18.792;2023-07-20T09:56:17;998.83;;;34.44;27.91
54144;BME280;40050;47.324;18.792;2023-07-20T09:58:21;998.78;;;34.23;28.81
54144;BME280;40050;47.324;18.792;2023-07-20T10:00:22;998.77;;;34.17;28.82
54144;BME280;40050;47.324;18.792;2023-07-20T10:02:25;998.80;;;34.10;29.17
54144;BME280;40050;47.324;18.792;2023-07-20T10:04:26;998.86;;;34.08;29.75
54144;BME280;40050;47.324;18.792;2023-07-20T10:06:29;998.91;;;34.06;29.43
54144;BME280;40050;47.324;18.792;2023-07-20T10:08:33;998.99;;;34.07;29.39
54144;BME280;40050;47.324;18.792;2023-07-20T10:10:35;999.01;;;34.09;29.67
54144;BME280;40050;47.324;18.792;2023-07-20T10:12:37;999.00;;;34.10;29.31
54144;BME280;40050;47.324;18.792;2023-07-20T10:14:43;998.93;;;34.15;29.33
54144;BME280;40050;47.324;18.792;2023-07-20T10:16:50;998.97;;;34.14;29.90
54144;BME280;40050;47.324;18.792;2023-07-20T10:21:04;999.03;;;34.09;29.72
54144;BME280;40050;47.324;18.792;2023-07-20T10:23:07;999.03;;;34.00;29.62
54144;BME280;40050;47.324;18.792;2023-07-20T10:25:08;999.01;;;33.94;29.69
54144;BME280;40050;47.324;18.792;2023-07-20T10:27:09;999.01;;;33.84;30.00
54144;BME280;40050;47.324;18.792;2023-07-20T10:29:10;998.96;;;33.72;30.31
54144;BME280;40050;47.324;18.792;2023-07-20T10:31:12;999.00;;;33.75;30.14
54144;BME280;40050;47.324;18.792;2023-07-20T10:33:14;998.99;;;33.69;29.74
54144;BME280;40050;47.324;18.792;2023-07-20T10:35:15;998.98;;;33.59;30.13
54144;BME280;40050;47.324;18.792;2023-07-20T10:39:42;998.97;;;33.44;30.75
54144;BME280;40050;47.324;18.792;2023-07-20T10:41:43;998.96;;;33.55;30.71
54144;BME280;40050;47.324;18.792;2023-07-20T10:43:44;998.93;;;33.53;30.94
54144;BME280;40050;47.324;18.792;2023-07-20T10:45:49;998.94;;;33.52;30.86
54144;BME280;40050;47.324;18.792;2023-07-20T10:47:50;998.72;;;33.39;31.20
54144;BME280;40050;47.324;18.792;2023-07-20T10:49:59;998.99;;;33.55;31.12
54144;BME280;40050;47.324;18.792;2023-07-20T10:52:04;998.92;;;33.61;30.97
54144;BME280;40050;47.324;18.792;2023-07-20T10:54:09;998.92;;;33.63;30.28
54144;BME280;40050;47.324;18.792;2023-07-20T10:56:22;998.85;;;33.61;30.08
54144;BME280;40050;47.324;18.792;2023-07-20T10:58:23;998.92;;;33.60;30.37
54144;BME280;40050;47.324;18.792;2023-07-20T11:00:24;998.73;;;33.49;29.72